LiveATC.Net - Listen to live air traffic control over the Internet!


ICAO: CYOO  IATA: YOO   Airport: Oshawa Municipal Airport
City: Oshawa   State/Province: Ontario
Country: Canada   Continent: North America
CYOO METAR Weather: CYOO 251400Z AUTO 02010G15KT 340V050 9SM OVC029 18/11 A3017 RMK SLP219 DENSITY ALT 600FT
CYOO Flight Activity (FlightAware)
CYOO Webcam:  (Airport Webcams) 
CYOO Gnd/Twr
Feed Status: UP   Listeners: 2
Listen right in your browser - requires Flash (in browser, requires Flash)
Click here to listen with your own player (launches your MP3 player)
CYOO Gnd/Twr Audio Archives
FacilityFrequency
Oshawa Ground118.400
Oshawa Tower120.100


NOTICE

Unauthorized use prohibited. See LiveATC.net Terms of Service


Find LiveATC Audio Streams


Airport/ARTCC Code

Frequency Search
(e.g., 124.400, 128.75)
Site-wide search
 


Browse LiveATC Feeds
LiveATC Coverage Map
Top 50 LiveATC Feeds
Bad Weather Areas

LiveATC FAQ
Offer a LiveATC Feed
Contact LiveATC.net
Press Inquiries

LiveATC on iPhone
LiveATC on Android

Windows Phone
Windows 8/10

LiveATC Mobile
(Mobile browser)

ATC Audio Archives
Interesting Recordings

LiveATC Forums


Home Page
About LiveATC.net
Make a Donation
LiveATC Store

Terms of Use
Privacy Policy

Canadian Air Freqs

AIRMETs/SIGMETs

FAA Airport Status
Nat'l Airspace Status
Arrival Demand Charts


Server Software By:
Icecast.org
Liquidsoap